sensor_id;sensor_type;location;lat;lon;timestamp;pressure;altitude;pressure_sealevel;temperature
9985;BMP180;16737;50.932;6.780;2023-07-13T00:01:55;100272.00;;;23.00
9985;BMP180;16737;50.932;6.780;2023-07-13T00:04:24;100279.00;;;23.00
9985;BMP180;16737;50.932;6.780;2023-07-13T00:06:52;100279.00;;;22.90
9985;BMP180;16737;50.932;6.780;2023-07-13T00:09:20;100280.00;;;22.90
9985;BMP180;16737;50.932;6.780;2023-07-13T00:11:52;100280.00;;;22.90
9985;BMP180;16737;50.932;6.780;2023-07-13T00:14:21;100286.00;;;22.90
9985;BMP180;16737;50.932;6.780;2023-07-13T00:16:49;100280.00;;;22.80
9985;BMP180;16737;50.932;6.780;2023-07-13T00:19:16;100287.00;;;22.80
9985;BMP180;16737;50.932;6.780;2023-07-13T00:21:43;100294.00;;;22.80
9985;BMP180;16737;50.932;6.780;2023-07-13T00:24:13;100284.00;;;22.70
9985;BMP180;16737;50.932;6.780;2023-07-13T00:26:41;100289.00;;;22.70
9985;BMP180;16737;50.932;6.780;2023-07-13T00:29:10;100283.00;;;22.70
9985;BMP180;16737;50.932;6.780;2023-07-13T00:31:39;100287.00;;;22.60
9985;BMP180;16737;50.932;6.780;2023-07-13T00:34:06;100283.00;;;22.60
9985;BMP180;16737;50.932;6.780;2023-07-13T00:36:34;100286.00;;;22.60
9985;BMP180;16737;50.932;6.780;2023-07-13T00:39:01;100285.00;;;22.50
9985;BMP180;16737;50.932;6.780;2023-07-13T00:41:30;100288.00;;;22.50
9985;BMP180;16737;50.932;6.780;2023-07-13T00:43:57;100284.00;;;22.40
9985;BMP180;16737;50.932;6.780;2023-07-13T00:46:27;100285.00;;;22.40
9985;BMP180;16737;50.932;6.780;2023-07-13T00:48:58;100288.00;;;22.40
9985;BMP180;16737;50.932;6.780;2023-07-13T00:51:31;100288.00;;;22.30
9985;BMP180;16737;50.932;6.780;2023-07-13T00:54:03;100281.00;;;22.30
9985;BMP180;16737;50.932;6.780;2023-07-13T00:56:31;100282.00;;;22.20
9985;BMP180;16737;50.932;6.780;2023-07-13T00:59:00;100278.00;;;22.20
9985;BMP180;16737;50.932;6.780;2023-07-13T01:01:29;100267.00;;;22.10
9985;BMP180;16737;50.932;6.780;2023-07-13T01:03:58;100273.00;;;22.10
9985;BMP180;16737;50.932;6.780;2023-07-13T01:06:26;100262.00;;;22.10
9985;BMP180;16737;50.932;6.780;2023-07-13T01:08:53;100266.00;;;22.10
9985;BMP180;16737;50.932;6.780;2023-07-13T01:11:21;100270.00;;;22.00
9985;BMP180;16737;50.932;6.780;2023-07-13T01:13:49;100263.00;;;22.00
9985;BMP180;16737;50.932;6.780;2023-07-13T01:16:22;100268.00;;;21.90
9985;BMP180;16737;50.932;6.780;2023-07-13T01:18:51;100272.00;;;21.90
9985;BMP180;16737;50.932;6.780;2023-07-13T01:21:19;100264.00;;;21.90
9985;BMP180;16737;50.932;6.780;2023-07-13T01:23:46;100266.00;;;21.80
9985;BMP180;16737;50.932;6.780;2023-07-13T01:26:14;100266.00;;;21.80
9985;BMP180;16737;50.932;6.780;2023-07-13T01:28:41;100271.00;;;21.80
9985;BMP180;16737;50.932;6.780;2023-07-13T01:31:09;100273.00;;;21.70
9985;BMP180;16737;50.932;6.780;2023-07-13T01:33:37;100273.00;;;21.70
9985;BMP180;16737;50.932;6.780;2023-07-13T01:36:05;100275.00;;;21.70
9985;BMP180;16737;50.932;6.780;2023-07-13T01:38:34;100275.00;;;21.60
9985;BMP180;16737;50.932;6.780;2023-07-13T01:41:02;100273.00;;;21.60
9985;BMP180;16737;50.932;6.780;2023-07-13T01:43:30;100274.00;;;21.60
9985;BMP180;16737;50.932;6.780;2023-07-13T01:45:58;100266.00;;;21.60
9985;BMP180;16737;50.932;6.780;2023-07-13T01:48:26;100265.00;;;21.50
9985;BMP180;16737;50.932;6.780;2023-07-13T01:50:53;100265.00;;;21.50
9985;BMP180;16737;50.932;6.780;2023-07-13T01:53:20;100257.00;;;21.50
9985;BMP180;16737;50.932;6.780;2023-07-13T01:55:49;100250.00;;;21.50
9985;BMP180;16737;50.932;6.780;2023-07-13T01:58:16;100255.00;;;21.50
9985;BMP180;16737;50.932;6.780;2023-07-13T02:00:44;100255.00;;;21.50
9985;BMP180;16737;50.932;6.780;2023-07-13T02:03:11;100257.00;;;21.40
9985;BMP180;16737;50.932;6.780;2023-07-13T02:05:44;100266.00;;;21.40
9985;BMP180;16737;50.932;6.780;2023-07-13T02:08:11;100263.00;;;21.40
9985;BMP180;16737;50.932;6.780;2023-07-13T02:10:38;100263.00;;;21.40
9985;BMP180;16737;50.932;6.780;2023-07-13T02:13:07;100267.00;;;21.30
9985;BMP180;16737;50.932;6.780;2023-07-13T02:15:38;100270.00;;;21.30
9985;BMP180;16737;50.932;6.780;2023-07-13T02:18:06;100272.00;;;21.30
9985;BMP180;16737;50.932;6.780;2023-07-13T02:20:34;100259.00;;;21.20
9985;BMP180;16737;50.932;6.780;2023-07-13T02:23:01;100279.00;;;21.20
9985;BMP180;16737;50.932;6.780;2023-07-13T02:25:29;100268.00;;;21.20
9985;BMP180;16737;50.932;6.780;2023-07-13T02:27:56;100271.00;;;21.10
9985;BMP180;16737;50.932;6.780;2023-07-13T02:30:27;100267.00;;;21.10
9985;BMP180;16737;50.932;6.780;2023-07-13T02:32:55;100270.00;;;21.10
9985;BMP180;16737;50.932;6.780;2023-07-13T02:35:23;100265.00;;;21.10
9985;BMP180;16737;50.932;6.780;2023-07-13T02:37:50;100277.00;;;21.00
9985;BMP180;16737;50.932;6.780;2023-07-13T02:40:18;100268.00;;;21.00
9985;BMP180;16737;50.932;6.780;2023-07-13T02:42:45;100266.00;;;21.00
9985;BMP180;16737;50.932;6.780;2023-07-13T02:45:12;100268.00;;;21.00
9985;BMP180;16737;50.932;6.780;2023-07-13T02:47:42;100269.00;;;20.90
9985;BMP180;16737;50.932;6.780;2023-07-13T02:50:09;100269.00;;;20.90
9985;BMP180;16737;50.932;6.780;2023-07-13T02:52:36;100271.00;;;20.90
9985;BMP180;16737;50.932;6.780;2023-07-13T02:55:04;100264.00;;;20.80
9985;BMP180;16737;50.932;6.780;2023-07-13T02:57:31;100267.00;;;20.80
9985;BMP180;16737;50.932;6.780;2023-07-13T03:00:00;100272.00;;;20.80
9985;BMP180;16737;50.932;6.780;2023-07-13T03:02:27;100275.00;;;20.70
9985;BMP180;16737;50.932;6.780;2023-07-13T03:04:56;100279.00;;;20.70
9985;BMP180;16737;50.932;6.780;2023-07-13T03:07:24;100286.00;;;20.70
9985;BMP180;16737;50.932;6.780;2023-07-13T03:09:54;100288.00;;;20.60
9985;BMP180;16737;50.932;6.780;2023-07-13T03:12:22;100289.00;;;20.60
9985;BMP180;16737;50.932;6.780;2023-07-13T03:14:49;100283.00;;;20.60
9985;BMP180;16737;50.932;6.780;2023-07-13T03:17:16;100289.00;;;20.50
9985;BMP180;16737;50.932;6.780;2023-07-13T03:19:44;100286.00;;;20.50
9985;BMP180;16737;50.932;6.780;2023-07-13T03:22:16;100288.00;;;20.40
9985;BMP180;16737;50.932;6.780;2023-07-13T03:24:44;100289.00;;;20.40
9985;BMP180;16737;50.932;6.780;2023-07-13T03:27:11;100287.00;;;20.40
9985;BMP180;16737;50.932;6.780;2023-07-13T03:29:38;100289.00;;;20.30
9985;BMP180;16737;50.932;6.780;2023-07-13T03:32:06;100288.00;;;20.30
9985;BMP180;16737;50.932;6.780;2023-07-13T03:34:34;100296.00;;;20.30
9985;BMP180;16737;50.932;6.780;2023-07-13T03:37:01;100287.00;;;20.30
9985;BMP180;16737;50.932;6.780;2023-07-13T03:39:30;100286.00;;;20.30
9985;BMP180;16737;50.932;6.780;2023-07-13T03:41:57;100297.00;;;20.30
9985;BMP180;16737;50.932;6.780;2023-07-13T03:44:24;100292.00;;;20.20
9985;BMP180;16737;50.932;6.780;2023-07-13T03:46:52;100291.00;;;20.20
9985;BMP180;16737;50.932;6.780;2023-07-13T03:49:19;100290.00;;;20.20
9985;BMP180;16737;50.932;6.780;2023-07-13T03:51:46;100300.00;;;20.20
9985;BMP180;16737;50.932;6.780;2023-07-13T03:54:14;100303.00;;;20.10
9985;BMP180;16737;50.932;6.780;2023-07-13T03:56:42;100302.00;;;20.10
9985;BMP180;16737;50.932;6.780;2023-07-13T03:59:10;100308.00;;;20.10
9985;BMP180;16737;50.932;6.780;2023-07-13T04:01:37;100306.00;;;20.00
9985;BMP180;16737;50.932;6.780;2023-07-13T04:04:05;100306.00;;;20.00
9985;BMP180;16737;50.932;6.780;2023-07-13T04:06:32;100307.00;;;20.00
9985;BMP180;16737;50.932;6.780;2023-07-13T04:09:01;100310.00;;;20.00
9985;BMP180;16737;50.932;6.780;2023-07-13T04:11:32;100305.00;;;20.00
9985;BMP180;16737;50.932;6.780;2023-07-13T04:14:04;100309.00;;;19.90
9985;BMP180;16737;50.932;6.780;2023-07-13T04:16:32;100313.00;;;19.90
9985;BMP180;16737;50.932;6.780;2023-07-13T04:18:59;100313.00;;;19.90
9985;BMP180;16737;50.932;6.780;2023-07-13T04:21:27;100304.00;;;19.90
9985;BMP180;16737;50.932;6.780;2023-07-13T04:23:55;100316.00;;;19.90
9985;BMP180;16737;50.932;6.780;2023-07-13T04:26:23;100313.00;;;19.90
9985;BMP180;16737;50.932;6.780;2023-07-13T04:28:50;100312.00;;;19.90
9985;BMP180;16737;50.932;6.780;2023-07-13T04:31:19;100322.00;;;20.00
9985;BMP180;16737;50.932;6.780;2023-07-13T04:33:46;100321.00;;;20.00
9985;BMP180;16737;50.932;6.780;2023-07-13T04:36:15;100318.00;;;20.00
9985;BMP180;16737;50.932;6.780;2023-07-13T04:38:42;100325.00;;;20.00
9985;BMP180;16737;50.932;6.780;2023-07-13T04:41:09;100330.00;;;20.00
9985;BMP180;16737;50.932;6.780;2023-07-13T04:43:37;100316.00;;;20.00
9985;BMP180;16737;50.932;6.780;2023-07-13T04:46:05;100319.00;;;20.00
9985;BMP180;16737;50.932;6.780;2023-07-13T04:48:34;100324.00;;;20.10
9985;BMP180;16737;50.932;6.780;2023-07-13T04:51:02;100325.00;;;20.10
9985;BMP180;16737;50.932;6.780;2023-07-13T04:53:30;100332.00;;;20.10
9985;BMP180;16737;50.932;6.780;2023-07-13T04:55:58;100331.00;;;20.10
9985;BMP180;16737;50.932;6.780;2023-07-13T04:58:26;100332.00;;;20.10
9985;BMP180;16737;50.932;6.780;2023-07-13T05:00:53;100331.00;;;20.20
9985;BMP180;16737;50.932;6.780;2023-07-13T05:03:28;100321.00;;;20.20
9985;BMP180;16737;50.932;6.780;2023-07-13T05:05:58;100332.00;;;20.20
9985;BMP180;16737;50.932;6.780;2023-07-13T05:08:25;100332.00;;;20.30
9985;BMP180;16737;50.932;6.780;2023-07-13T05:10:53;100336.00;;;20.30
9985;BMP180;16737;50.932;6.780;2023-07-13T05:13:20;100335.00;;;20.30
9985;BMP180;16737;50.932;6.780;2023-07-13T05:15:55;100347.00;;;20.30
9985;BMP180;16737;50.932;6.780;2023-07-13T05:18:22;100334.00;;;20.40
9985;BMP180;16737;50.932;6.780;2023-07-13T05:20:57;100339.00;;;20.40
9985;BMP180;16737;50.932;6.780;2023-07-13T05:23:25;100339.00;;;20.40
9985;BMP180;16737;50.932;6.780;2023-07-13T05:25:52;100344.00;;;20.50
9985;BMP180;16737;50.932;6.780;2023-07-13T05:28:20;100342.00;;;20.50
9985;BMP180;16737;50.932;6.780;2023-07-13T05:30:47;100345.00;;;20.50
9985;BMP180;16737;50.932;6.780;2023-07-13T05:33:15;100357.00;;;20.60
9985;BMP180;16737;50.932;6.780;2023-07-13T05:35:42;100363.00;;;20.60
9985;BMP180;16737;50.932;6.780;2023-07-13T05:38:11;100353.00;;;20.70
9985;BMP180;16737;50.932;6.780;2023-07-13T05:40:38;100355.00;;;20.70
9985;BMP180;16737;50.932;6.780;2023-07-13T05:43:06;100353.00;;;20.80
9985;BMP180;16737;50.932;6.780;2023-07-13T05:45:35;100362.00;;;20.80
9985;BMP180;16737;50.932;6.780;2023-07-13T05:48:02;100357.00;;;20.90
9985;BMP180;16737;50.932;6.780;2023-07-13T05:50:31;100359.00;;;20.90
9985;BMP180;16737;50.932;6.780;2023-07-13T05:52:59;100368.00;;;21.00
9985;BMP180;16737;50.932;6.780;2023-07-13T05:55:27;100366.00;;;21.00
9985;BMP180;16737;50.932;6.780;2023-07-13T05:57:54;100377.00;;;21.10
9985;BMP180;16737;50.932;6.780;2023-07-13T06:00:24;100376.00;;;21.10
9985;BMP180;16737;50.932;6.780;2023-07-13T06:02:52;100383.00;;;21.20
9985;BMP180;16737;50.932;6.780;2023-07-13T06:05:20;100381.00;;;21.20
9985;BMP180;16737;50.932;6.780;2023-07-13T06:07:47;100380.00;;;21.30
9985;BMP180;16737;50.932;6.780;2023-07-13T06:10:15;100382.00;;;21.30
9985;BMP180;16737;50.932;6.780;2023-07-13T06:12:43;100384.00;;;21.40
9985;BMP180;16737;50.932;6.780;2023-07-13T06:15:11;100381.00;;;21.40
9985;BMP180;16737;50.932;6.780;2023-07-13T06:17:38;100385.00;;;21.50
9985;BMP180;16737;50.932;6.780;2023-07-13T06:20:07;100384.00;;;21.50
9985;BMP180;16737;50.932;6.780;2023-07-13T06:22:34;100389.00;;;21.60
9985;BMP180;16737;50.932;6.780;2023-07-13T06:25:01;100399.00;;;21.60
9985;BMP180;16737;50.932;6.780;2023-07-13T06:27:29;100397.00;;;21.60
9985;BMP180;16737;50.932;6.780;2023-07-13T06:29:57;100398.00;;;21.70
9985;BMP180;16737;50.932;6.780;2023-07-13T06:32:25;100406.00;;;21.70
9985;BMP180;16737;50.932;6.780;2023-07-13T06:34:52;100414.00;;;21.80
9985;BMP180;16737;50.932;6.780;2023-07-13T06:37:22;100415.00;;;21.80
9985;BMP180;16737;50.932;6.780;2023-07-13T06:39:49;100406.00;;;21.80
9985;BMP180;16737;50.932;6.780;2023-07-13T06:42:16;100411.00;;;21.80
9985;BMP180;16737;50.932;6.780;2023-07-13T06:44:44;100404.00;;;21.80
9985;BMP180;16737;50.932;6.780;2023-07-13T06:47:13;100409.00;;;21.90
9985;BMP180;16737;50.932;6.780;2023-07-13T06:49:40;100400.00;;;21.90
9985;BMP180;16737;50.932;6.780;2023-07-13T06:52:07;100409.00;;;21.90
9985;BMP180;16737;50.932;6.780;2023-07-13T06:54:35;100408.00;;;22.00
9985;BMP180;16737;50.932;6.780;2023-07-13T06:57:03;100415.00;;;22.00
9985;BMP180;16737;50.932;6.780;2023-07-13T06:59:30;100422.00;;;22.10
9985;BMP180;16737;50.932;6.780;2023-07-13T07:01:57;100426.00;;;22.10
9985;BMP180;16737;50.932;6.780;2023-07-13T07:04:26;100418.00;;;22.10
9985;BMP180;16737;50.932;6.780;2023-07-13T07:06:53;100433.00;;;22.20
9985;BMP180;16737;50.932;6.780;2023-07-13T07:09:21;100426.00;;;22.30
9985;BMP180;16737;50.932;6.780;2023-07-13T07:11:48;100430.00;;;22.30
9985;BMP180;16737;50.932;6.780;2023-07-13T07:14:15;100417.00;;;22.40
9985;BMP180;16737;50.932;6.780;2023-07-13T07:16:43;100437.00;;;22.50
9985;BMP180;16737;50.932;6.780;2023-07-13T07:19:11;100432.00;;;22.50
9985;BMP180;16737;50.932;6.780;2023-07-13T07:21:39;100435.00;;;22.60
9985;BMP180;16737;50.932;6.780;2023-07-13T07:24:07;100443.00;;;22.70
9985;BMP180;16737;50.932;6.780;2023-07-13T07:26:34;100433.00;;;22.70
9985;BMP180;16737;50.932;6.780;2023-07-13T07:29:02;100443.00;;;22.80
9985;BMP180;16737;50.932;6.780;2023-07-13T07:31:29;100436.00;;;22.80
9985;BMP180;16737;50.932;6.780;2023-07-13T07:33:56;100440.00;;;22.90
9985;BMP180;16737;50.932;6.780;2023-07-13T07:36:24;100451.00;;;22.90
9985;BMP180;16737;50.932;6.780;2023-07-13T07:38:52;100453.00;;;23.00
9985;BMP180;16737;50.932;6.780;2023-07-13T07:41:20;100452.00;;;23.00
9985;BMP180;16737;50.932;6.780;2023-07-13T07:43:48;100453.00;;;23.10
9985;BMP180;16737;50.932;6.780;2023-07-13T07:46:15;100451.00;;;23.10
9985;BMP180;16737;50.932;6.780;2023-07-13T07:48:43;100449.00;;;23.10
9985;BMP180;16737;50.932;6.780;2023-07-13T07:51:10;100449.00;;;23.10
9985;BMP180;16737;50.932;6.780;2023-07-13T07:53:37;100448.00;;;23.20
9985;BMP180;16737;50.932;6.780;2023-07-13T07:56:06;100450.00;;;23.20
9985;BMP180;16737;50.932;6.780;2023-07-13T07:58:33;100446.00;;;23.30
9985;BMP180;16737;50.932;6.780;2023-07-13T08:01:04;100449.00;;;23.30
9985;BMP180;16737;50.932;6.780;2023-07-13T08:03:32;100457.00;;;23.30
9985;BMP180;16737;50.932;6.780;2023-07-13T08:06:00;100457.00;;;23.40
9985;BMP180;16737;50.932;6.780;2023-07-13T08:08:27;100458.00;;;23.40
9985;BMP180;16737;50.932;6.780;2023-07-13T08:10:54;100451.00;;;23.40
9985;BMP180;16737;50.932;6.780;2023-07-13T08:13:23;100458.00;;;23.50
9985;BMP180;16737;50.932;6.780;2023-07-13T08:15:50;100458.00;;;23.50
9985;BMP180;16737;50.932;6.780;2023-07-13T08:18:17;100458.00;;;23.50
9985;BMP180;16737;50.932;6.780;2023-07-13T08:20:45;100460.00;;;23.50
9985;BMP180;16737;50.932;6.780;2023-07-13T08:23:12;100448.00;;;23.60
9985;BMP180;16737;50.932;6.780;2023-07-13T08:25:39;100448.00;;;23.60
9985;BMP180;16737;50.932;6.780;2023-07-13T08:28:07;100452.00;;;23.70
9985;BMP180;16737;50.932;6.780;2023-07-13T08:30:35;100451.00;;;23.70
9985;BMP180;16737;50.932;6.780;2023-07-13T08:33:03;100450.00;;;23.80
9985;BMP180;16737;50.932;6.780;2023-07-13T08:35:30;100452.00;;;23.90
9985;BMP180;16737;50.932;6.780;2023-07-13T08:37:58;100452.00;;;24.00
9985;BMP180;16737;50.932;6.780;2023-07-13T08:40:27;100453.00;;;24.00
9985;BMP180;16737;50.932;6.780;2023-07-13T08:42:56;100447.00;;;24.10
9985;BMP180;16737;50.932;6.780;2023-07-13T08:45:28;100455.00;;;24.10
9985;BMP180;16737;50.932;6.780;2023-07-13T08:48:01;100459.00;;;24.10
9985;BMP180;16737;50.932;6.780;2023-07-13T08:50:32;100451.00;;;24.20
9985;BMP180;16737;50.932;6.780;2023-07-13T08:53:02;100457.00;;;24.20
9985;BMP180;16737;50.932;6.780;2023-07-13T08:55:33;100455.00;;;24.20
9985;BMP180;16737;50.932;6.780;2023-07-13T08:58:05;100458.00;;;24.20
9985;BMP180;16737;50.932;6.780;2023-07-13T09:00:42;100463.00;;;24.20
9985;BMP180;16737;50.932;6.780;2023-07-13T09:03:20;100457.00;;;24.10
9985;BMP180;16737;50.932;6.780;2023-07-13T09:05:52;100453.00;;;24.10
9985;BMP180;16737;50.932;6.780;2023-07-13T09:08:34;100453.00;;;24.10
9985;BMP180;16737;50.932;6.780;2023-07-13T09:11:13;100460.00;;;24.10
9985;BMP180;16737;50.932;6.780;2023-07-13T09:13:50;100456.00;;;24.20
9985;BMP180;16737;50.932;6.780;2023-07-13T09:16:25;100453.00;;;24.20
9985;BMP180;16737;50.932;6.780;2023-07-13T09:18:56;100463.00;;;24.30
9985;BMP180;16737;50.932;6.780;2023-07-13T09:21:28;100452.00;;;24.40
9985;BMP180;16737;50.932;6.780;2023-07-13T09:24:01;100458.00;;;24.50
9985;BMP180;16737;50.932;6.780;2023-07-13T09:26:30;100451.00;;;24.50
9985;BMP180;16737;50.932;6.780;2023-07-13T09:29:03;100462.00;;;24.60
9985;BMP180;16737;50.932;6.780;2023-07-13T09:31:41;100458.00;;;24.60
9985;BMP180;16737;50.932;6.780;2023-07-13T09:34:11;100455.00;;;24.70
9985;BMP180;16737;50.932;6.780;2023-07-13T09:36:39;100459.00;;;24.80
9985;BMP180;16737;50.932;6.780;2023-07-13T09:39:12;100459.00;;;24.80
9985;BMP180;16737;50.932;6.780;2023-07-13T09:41:46;100468.00;;;24.90
9985;BMP180;16737;50.932;6.780;2023-07-13T09:44:16;100462.00;;;24.90
9985;BMP180;16737;50.932;6.780;2023-07-13T09:46:52;100464.00;;;25.00
9985;BMP180;16737;50.932;6.780;2023-07-13T09:49:24;100457.00;;;25.00
9985;BMP180;16737;50.932;6.780;2023-07-13T09:51:58;100470.00;;;25.10
9985;BMP180;16737;50.932;6.780;2023-07-13T09:54:26;100468.00;;;25.20
9985;BMP180;16737;50.932;6.780;2023-07-13T09:56:58;100469.00;;;25.30
9985;BMP180;16737;50.932;6.780;2023-07-13T09:59:31;100474.00;;;25.30
9985;BMP180;16737;50.932;6.780;2023-07-13T10:01:58;100469.00;;;25.40
9985;BMP180;16737;50.932;6.780;2023-07-13T10:04:32;100470.00;;;25.40
9985;BMP180;16737;50.932;6.780;2023-07-13T10:07:06;100468.00;;;25.50
9985;BMP180;16737;50.932;6.780;2023-07-13T10:09:34;100468.00;;;25.50
9985;BMP180;16737;50.932;6.780;2023-07-13T10:12:01;100460.00;;;25.60
9985;BMP180;16737;50.932;6.780;2023-07-13T10:14:29;100471.00;;;25.70
9985;BMP180;16737;50.932;6.780;2023-07-13T10:17:00;100468.00;;;25.80
9985;BMP180;16737;50.932;6.780;2023-07-13T10:19:32;100467.00;;;25.90
9985;BMP180;16737;50.932;6.780;2023-07-13T10:22:09;100471.00;;;26.00
9985;BMP180;16737;50.932;6.780;2023-07-13T10:24:38;100471.00;;;26.10
9985;BMP180;16737;50.932;6.780;2023-07-13T10:27:12;100475.00;;;26.20
9985;BMP180;16737;50.932;6.780;2023-07-13T10:29:46;100488.00;;;26.30
9985;BMP180;16737;50.932;6.780;2023-07-13T10:32:14;100472.00;;;26.30
9985;BMP180;16737;50.932;6.780;2023-07-13T10:34:44;100479.00;;;26.40
9985;BMP180;16737;50.932;6.780;2023-07-13T10:37:19;100478.00;;;26.50
9985;BMP180;16737;50.932;6.780;2023-07-13T10:39:51;100476.00;;;26.60
9985;BMP180;16737;50.932;6.780;2023-07-13T10:42:27;100478.00;;;26.70
9985;BMP180;16737;50.932;6.780;2023-07-13T10:44:55;100479.00;;;26.80
9985;BMP180;16737;50.932;6.780;2023-07-13T10:47:22;100490.00;;;26.90
9985;BMP180;16737;50.932;6.780;2023-07-13T10:49:56;100485.00;;;26.90
9985;BMP180;16737;50.932;6.780;2023-07-13T10:52:47;100492.00;;;26.90
9985;BMP180;16737;50.932;6.780;2023-07-13T10:55:36;100483.00;;;26.80
9985;BMP180;16737;50.932;6.780;2023-07-13T10:58:12;100500.00;;;26.80
9985;BMP180;16737;50.932;6.780;2023-07-13T11:00:51;100498.00;;;26.80
9985;BMP180;16737;50.932;6.780;2023-07-13T11:03:22;100496.00;;;26.70
9985;BMP180;16737;50.932;6.780;2023-07-13T11:06:03;100501.00;;;26.70
9985;BMP180;16737;50.932;6.780;2023-07-13T11:08:34;100499.00;;;26.70
9985;BMP180;16737;50.932;6.780;2023-07-13T11:11:03;100500.00;;;26.70
9985;BMP180;16737;50.932;6.780;2023-07-13T11:13:59;100497.00;;;26.70
9985;BMP180;16737;50.932;6.780;2023-07-13T11:16:46;100501.00;;;26.80
9985;BMP180;16737;50.932;6.780;2023-07-13T11:19:40;100501.00;;;26.80
9985;BMP180;16737;50.932;6.780;2023-07-13T11:22:13;100504.00;;;26.90
9985;BMP180;16737;50.932;6.780;2023-07-13T11:24:58;100492.00;;;26.90
9985;BMP180;16737;50.932;6.780;2023-07-13T11:27:39;100490.00;;;26.90
9985;BMP180;16737;50.932;6.780;2023-07-13T11:30:23;100496.00;;;26.90
9985;BMP180;16737;50.932;6.780;2023-07-13T11:33:01;100492.00;;;26.90
9985;BMP180;16737;50.932;6.780;2023-07-13T11:35:34;100490.00;;;26.90
9985;BMP180;16737;50.932;6.780;2023-07-13T11:38:03;100494.00;;;26.90
9985;BMP180;16737;50.932;6.780;2023-07-13T11:40:36;100494.00;;;26.80
9985;BMP180;16737;50.932;6.780;2023-07-13T11:43:06;100501.00;;;26.80
9985;BMP180;16737;50.932;6.780;2023-07-13T11:45:35;100497.00;;;26.80
9985;BMP180;16737;50.932;6.780;2023-07-13T11:48:03;100497.00;;;26.80
9985;BMP180;16737;50.932;6.780;2023-07-13T11:50:30;100490.00;;;26.80
9985;BMP180;16737;50.932;6.780;2023-07-13T11:52:59;100494.00;;;26.90
9985;BMP180;16737;50.932;6.780;2023-07-13T11:55:26;100489.00;;;26.90
9985;BMP180;16737;50.932;6.780;2023-07-13T11:57:58;100498.00;;;26.90
9985;BMP180;16737;50.932;6.780;2023-07-13T12:00:29;100492.00;;;26.90
9985;BMP180;16737;50.932;6.780;2023-07-13T12:03:01;100505.00;;;26.90
9985;BMP180;16737;50.932;6.780;2023-07-13T12:05:30;100503.00;;;26.90
9985;BMP180;16737;50.932;6.780;2023-07-13T12:07:58;100495.00;;;26.90
9985;BMP180;16737;50.932;6.780;2023-07-13T12:10:27;100488.00;;;26.80
9985;BMP180;16737;50.932;6.780;2023-07-13T12:12:56;100496.00;;;26.80
9985;BMP180;16737;50.932;6.780;2023-07-13T12:15:30;100493.00;;;26.80
9985;BMP180;16737;50.932;6.780;2023-07-13T12:18:11;100487.00;;;26.80
9985;BMP180;16737;50.932;6.780;2023-07-13T12:20:39;100479.00;;;26.90
9985;BMP180;16737;50.932;6.780;2023-07-13T12:23:20;100496.00;;;27.00
9985;BMP180;16737;50.932;6.780;2023-07-13T12:25:50;100487.00;;;27.10
9985;BMP180;16737;50.932;6.780;2023-07-13T12:28:21;100495.00;;;27.20
9985;BMP180;16737;50.932;6.780;2023-07-13T12:30:49;100494.00;;;27.30
9985;BMP180;16737;50.932;6.780;2023-07-13T12:33:28;100498.00;;;27.30
9985;BMP180;16737;50.932;6.780;2023-07-13T12:35:59;100492.00;;;27.40
9985;BMP180;16737;50.932;6.780;2023-07-13T12:38:27;100499.00;;;27.40
9985;BMP180;16737;50.932;6.780;2023-07-13T12:40:55;100486.00;;;27.50
9985;BMP180;16737;50.932;6.780;2023-07-13T12:43:25;100488.00;;;27.50
9985;BMP180;16737;50.932;6.780;2023-07-13T12:45:58;100492.00;;;27.60
9985;BMP180;16737;50.932;6.780;2023-07-13T12:48:27;100489.00;;;27.70
9985;BMP180;16737;50.932;6.780;2023-07-13T12:50:55;100480.00;;;27.80
9985;BMP180;16737;50.932;6.780;2023-07-13T12:53:29;100493.00;;;27.90
9985;BMP180;16737;50.932;6.780;2023-07-13T12:55:59;100502.00;;;28.10
9985;BMP180;16737;50.932;6.780;2023-07-13T12:58:30;100489.00;;;28.20
9985;BMP180;16737;50.932;6.780;2023-07-13T13:01:01;100497.00;;;28.30
9985;BMP180;16737;50.932;6.780;2023-07-13T13:03:32;100491.00;;;28.40
9985;BMP180;16737;50.932;6.780;2023-07-13T13:06:01;100493.00;;;28.40
9985;BMP180;16737;50.932;6.780;2023-07-13T13:08:31;100506.00;;;28.50
9985;BMP180;16737;50.932;6.780;2023-07-13T13:10:58;100498.00;;;28.50
9985;BMP180;16737;50.932;6.780;2023-07-13T13:13:25;100509.00;;;28.60
9985;BMP180;16737;50.932;6.780;2023-07-13T13:15:53;100501.00;;;28.60
9985;BMP180;16737;50.932;6.780;2023-07-13T13:18:22;100505.00;;;28.60
9985;BMP180;16737;50.932;6.780;2023-07-13T13:20:52;100491.00;;;28.60
9985;BMP180;16737;50.932;6.780;2023-07-13T13:23:20;100495.00;;;28.60
9985;BMP180;16737;50.932;6.780;2023-07-13T13:25:50;100488.00;;;28.60
9985;BMP180;16737;50.932;6.780;2023-07-13T13:28:19;100486.00;;;28.70
9985;BMP180;16737;50.932;6.780;2023-07-13T13:30:50;100492.00;;;28.70
9985;BMP180;16737;50.932;6.780;2023-07-13T13:33:20;100483.00;;;28.70
9985;BMP180;16737;50.932;6.780;2023-07-13T13:35:48;100476.00;;;28.80
9985;BMP180;16737;50.932;6.780;2023-07-13T13:38:19;100486.00;;;28.80
9985;BMP180;16737;50.932;6.780;2023-07-13T13:40:47;100489.00;;;28.80
9985;BMP180;16737;50.932;6.780;2023-07-13T13:43:17;100485.00;;;28.80
9985;BMP180;16737;50.932;6.780;2023-07-13T13:45:45;100482.00;;;28.80
9985;BMP180;16737;50.932;6.780;2023-07-13T13:48:18;100481.00;;;28.80
9985;BMP180;16737;50.932;6.780;2023-07-13T13:50:47;100485.00;;;28.80
9985;BMP180;16737;50.932;6.780;2023-07-13T13:53:16;100484.00;;;28.80
9985;BMP180;16737;50.932;6.780;2023-07-13T13:55:43;100487.00;;;28.80
9985;BMP180;16737;50.932;6.780;2023-07-13T13:58:10;100492.00;;;28.80
9985;BMP180;16737;50.932;6.780;2023-07-13T14:00:39;100483.00;;;28.80
9985;BMP180;16737;50.932;6.780;2023-07-13T14:03:13;100477.00;;;28.70
9985;BMP180;16737;50.932;6.780;2023-07-13T14:05:41;100483.00;;;28.70
9985;BMP180;16737;50.932;6.780;2023-07-13T14:08:12;100485.00;;;28.70
9985;BMP180;16737;50.932;6.780;2023-07-13T14:10:41;100483.00;;;28.70
9985;BMP180;16737;50.932;6.780;2023-07-13T14:13:16;100476.00;;;28.70
9985;BMP180;16737;50.932;6.780;2023-07-13T14:15:45;100476.00;;;28.70
9985;BMP180;16737;50.932;6.780;2023-07-13T14:18:12;100487.00;;;28.70
9985;BMP180;16737;50.932;6.780;2023-07-13T14:20:44;100477.00;;;28.70
9985;BMP180;16737;50.932;6.780;2023-07-13T14:23:13;100487.00;;;28.70